Time;durP1;ratioP1;P1;durP2;ratioP2;P2;SDS_P1;SDS_P2;PMS_P1;PMS_P2;Temp;Humidity;BMP_temperature;BMP_pressure;BME280_temperature;BME280_humidity;BME280_pressure;Samples;Min_cycle;Max_cycle;Signal;HPM_P1;HPM_P2
2023/09/16 00:01:12;;;;;;;21.88;15.30;;;;;;;-144.57;100.00;62443.72;4857436;29;20049;-62
2023/09/16 00:03:38;;;;;;;21.13;15.23;;;;;;;-144.57;100.00;62443.72;4858992;29;20045;-61
2023/09/16 00:06:04;;;;;;;21.42;14.82;;;;;;;-144.57;100.00;62443.72;4841973;29;20199;-62
2023/09/16 00:08:32;;;;;;;20.00;15.52;;;;;;;-144.57;100.00;62443.72;4861980;29;20046;-61
2023/09/16 00:10:58;;;;;;;23.13;15.00;;;;;;;-144.57;100.00;62443.72;4861397;29;20049;-60
2023/09/16 00:13:24;;;;;;;22.48;16.10;;;;;;;-144.57;100.00;62443.72;4861909;29;20034;-60
2023/09/16 00:15:49;;;;;;;21.38;15.45;;;;;;;-144.57;100.00;62443.72;4861920;29;20097;-61
2023/09/16 00:18:16;;;;;;;22.77;15.70;;;;;;;-144.57;100.00;62443.72;4861733;29;20527;-60
2023/09/16 00:20:42;;;;;;;24.83;16.38;;;;;;;-144.57;100.00;62443.72;4862180;29;20516;-60
2023/09/16 00:23:09;;;;;;;27.33;17.13;;;;;;;-144.57;100.00;62443.72;4862437;29;20041;-61
2023/09/16 00:25:35;;;;;;;25.00;16.45;;;;;;;-144.57;100.00;62443.72;4862290;29;20049;-61
2023/09/16 00:28:01;;;;;;;24.63;17.02;;;;;;;-144.57;100.00;62443.72;4862298;29;20526;-61
2023/09/16 00:30:27;;;;;;;21.60;15.65;;;;;;;-144.57;100.00;62443.72;4862046;29;20241;-61
2023/09/16 00:32:53;;;;;;;20.88;15.02;;;;;;;-144.57;100.00;62443.72;4861939;29;20141;-61
2023/09/16 00:35:19;;;;;;;21.63;15.93;;;;;;;-144.57;100.00;62443.72;4860741;29;20435;-62
2023/09/16 00:37:46;;;;;;;20.42;14.65;;;;;;;-144.57;100.00;62443.72;4860737;29;20471;-60
2023/09/16 00:40:12;;;;;;;22.25;15.93;;;;;;;-144.57;100.00;62443.72;4860519;29;20089;-61
2023/09/16 00:42:38;;;;;;;23.23;16.02;;;;;;;-144.57;100.00;62443.72;4861800;29;20065;-60
2023/09/16 00:45:10;;;;;;;24.50;16.20;;;;;;;-144.57;100.00;62443.72;4860565;29;20092;-62
2023/09/16 00:47:37;;;;;;;24.00;16.80;;;;;;;-144.57;100.00;62443.72;4860676;29;20061;-61
2023/09/16 00:50:07;;;;;;;25.27;16.65;;;;;;;-144.57;100.00;62443.72;4861626;29;20508;-61
2023/09/16 00:52:34;;;;;;;24.75;16.77;;;;;;;-144.57;100.00;62443.72;4860689;29;20132;-59
2023/09/16 00:55:00;;;;;;;23.42;16.95;;;;;;;-144.57;100.00;62443.72;4829823;29;20061;-60
2023/09/16 00:57:27;;;;;;;25.60;17.38;;;;;;;-144.57;100.00;62443.72;4860397;29;20050;-61
2023/09/16 00:59:53;;;;;;;29.05;18.95;;;;;;;-144.57;100.00;62443.72;4859332;29;20049;-60
2023/09/16 01:02:19;;;;;;;42.67;26.08;;;;;;;-144.57;100.00;62443.72;4844959;29;20568;-60
2023/09/16 01:04:46;;;;;;;33.50;22.25;;;;;;;-144.57;100.00;62443.72;4859938;29;20106;-61
2023/09/16 01:07:14;;;;;;;25.92;18.08;;;;;;;-144.57;100.00;62443.72;4860278;29;20067;-60
2023/09/16 01:09:41;;;;;;;23.90;17.02;;;;;;;-144.57;100.00;62443.72;4860542;29;20341;-60
2023/09/16 01:12:10;;;;;;;23.20;16.23;;;;;;;-144.57;100.00;62443.72;4860098;29;20132;-60
2023/09/16 01:14:36;;;;;;;21.05;15.50;;;;;;;-144.57;100.00;62443.72;4859976;29;20054;-61
2023/09/16 01:17:10;;;;;;;22.52;15.65;;;;;;;-144.57;100.00;62443.72;4859108;29;20096;-61
2023/09/16 01:19:56;;;;;;;20.40;14.32;;;;;;;-144.57;100.00;62443.72;4859117;29;20057;-61
2023/09/16 01:22:22;;;;;;;17.02;12.80;;;;;;;-144.57;100.00;62443.72;4860185;29;20045;-60
2023/09/16 01:24:52;;;;;;;17.85;12.68;;;;;;;-144.57;100.00;62443.72;4861766;29;20049;-62
2023/09/16 01:27:19;;;;;;;11.68;8.75;;;;;;;-144.57;100.00;62443.72;4861024;29;20041;-60
2023/09/16 01:29:48;;;;;;;13.75;9.77;;;;;;;-144.57;100.00;62443.72;4861502;29;20053;-60
2023/09/16 01:32:15;;;;;;;11.82;9.43;;;;;;;-144.57;100.00;62443.72;4861954;29;20078;-59
2023/09/16 01:34:44;;;;;;;13.93;8.82;;;;;;;-144.57;100.00;62443.72;4860843;29;20117;-61
2023/09/16 01:37:18;;;;;;;12.23;9.13;;;;;;;-144.57;100.00;62443.72;4860418;29;20060;-60
2023/09/16 01:39:56;;;;;;;11.20;9.10;;;;;;;-144.57;100.00;62443.72;4861281;29;20058;-61
2023/09/16 01:42:22;;;;;;;11.88;8.30;;;;;;;-144.57;100.00;62443.72;4844905;29;20522;-61
2023/09/16 01:44:51;;;;;;;13.23;8.70;;;;;;;-144.57;100.00;62443.72;4859266;29;20071;-61
2023/09/16 01:47:17;;;;;;;12.30;7.70;;;;;;;-144.57;100.00;62443.72;4859703;29;20369;-60
2023/09/16 01:49:43;;;;;;;10.95;7.93;;;;;;;-144.57;100.00;62443.72;4844480;29;20054;-61
2023/09/16 01:52:08;;;;;;;8.73;6.47;;;;;;;-144.57;100.00;62443.72;4859883;29;20059;-60
2023/09/16 01:54:34;;;;;;;6.50;4.75;;;;;;;-144.57;100.00;62443.72;4860061;29;20057;-62
2023/09/16 01:57:00;;;;;;;3.88;2.60;;;;;;;-144.57;100.00;62443.72;4861477;29;20041;-60
2023/09/16 01:59:26;;;;;;;3.05;2.35;;;;;;;-144.57;100.00;62443.72;4859947;29;20531;-61
2023/09/16 02:01:52;;;;;;;2.22;2.03;;;;;;;-144.57;100.00;62443.72;4859642;29;20056;-59
2023/09/16 02:04:17;;;;;;;2.53;2.10;;;;;;;-144.57;100.00;62443.72;4861269;29;20050;-60
2023/09/16 02:06:46;;;;;;;1.75;1.63;;;;;;;-144.57;100.00;62443.72;4859686;29;20125;-61
2023/09/16 02:09:13;;;;;;;1.70;1.55;;;;;;;-144.57;100.00;62443.72;4859736;29;20052;-60
2023/09/16 02:11:39;;;;;;;1.45;1.35;;;;;;;-144.57;100.00;62443.72;4859468;29;20090;-62
2023/09/16 02:14:05;;;;;;;0.93;0.93;;;;;;;-144.57;100.00;62443.72;4860815;29;20113;-60
2023/09/16 02:16:32;;;;;;;1.23;1.13;;;;;;;-144.57;100.00;62443.72;4859336;29;20056;-61
2023/09/16 02:18:58;;;;;;;1.35;1.02;;;;;;;-144.57;100.00;62443.72;4859131;29;20122;-61
2023/09/16 02:21:23;;;;;;;1.15;0.90;;;;;;;-144.57;100.00;62443.72;4859303;29;20511;-62
2023/09/16 02:23:49;;;;;;;0.80;0.77;;;;;;;-144.57;100.00;62443.72;4859131;29;20055;-60
2023/09/16 02:26:15;;;;;;;1.38;1.00;;;;;;;-144.57;100.00;62443.72;4859279;29;20132;-62
2023/09/16 02:28:41;;;;;;;0.85;0.85;;;;;;;-144.57;100.00;62443.72;4859294;29;20058;-61
2023/09/16 02:31:09;;;;;;;1.92;0.90;;;;;;;-144.57;100.00;62443.72;4859967;29;20289;-61
2023/09/16 02:33:38;;;;;;;1.15;1.10;;;;;;;-144.57;100.00;62443.72;4859131;29;20041;-61
2023/09/16 02:36:07;;;;;;;1.15;0.98;;;;;;;-144.57;100.00;62443.72;4828019;29;20106;-61
2023/09/16 02:38:33;;;;;;;1.35;0.90;;;;;;;-144.57;100.00;62443.72;4858987;29;20045;-61
2023/09/16 02:41:04;;;;;;;0.80;0.80;;;;;;;-144.57;100.00;62443.72;4860135;29;20053;-60
2023/09/16 02:43:31;;;;;;;0.63;0.63;;;;;;;-144.57;100.00;62443.72;4858933;29;20053;-60
2023/09/16 02:45:57;;;;;;;0.70;0.70;;;;;;;-144.57;100.00;62443.72;4843422;29;20072;-60
2023/09/16 02:48:23;;;;;;;1.15;0.75;;;;;;;-144.57;100.00;62443.72;4858923;29;20061;-60
2023/09/16 02:50:49;;;;;;;0.82;0.80;;;;;;;-144.57;100.00;62443.72;4859056;29;20053;-59
2023/09/16 02:53:16;;;;;;;1.20;0.85;;;;;;;-144.57;100.00;62443.72;4858743;29;20551;-62
2023/09/16 02:55:41;;;;;;;0.77;0.77;;;;;;;-144.57;100.00;62443.72;4858595;29;20428;-61
2023/09/16 02:58:07;;;;;;;1.23;0.63;;;;;;;-144.57;100.00;62443.72;4858384;29;20077;-61
2023/09/16 03:00:34;;;;;;;1.00;1.00;;;;;;;-144.57;100.00;62443.72;4843329;29;20053;-61
2023/09/16 03:03:00;;;;;;;0.98;0.75;;;;;;;-144.57;100.00;62443.72;4858561;29;20041;-60
2023/09/16 03:05:26;;;;;;;0.85;0.80;;;;;;;-144.57;100.00;62443.72;4858452;29;20049;-60
2023/09/16 03:07:53;;;;;;;0.95;0.90;;;;;;;-144.57;100.00;62443.72;4858499;29;20050;-59
2023/09/16 03:10:18;;;;;;;1.40;0.80;;;;;;;-144.57;100.00;62443.72;4843032;29;20049;-61
2023/09/16 03:12:45;;;;;;;0.90;0.90;;;;;;;-144.57;100.00;62443.72;4858455;29;20049;-60
2023/09/16 03:15:11;;;;;;;1.45;0.90;;;;;;;-144.57;100.00;62443.72;4857129;29;20182;-60
2023/09/16 03:17:37;;;;;;;0.82;0.80;;;;;;;-144.57;100.00;62443.72;4858325;29;20045;-60
2023/09/16 03:20:03;;;;;;;0.80;0.80;;;;;;;-144.57;100.00;62443.72;4858154;29;20060;-63
2023/09/16 03:22:29;;;;;;;0.80;0.80;;;;;;;-144.57;100.00;62443.72;4842938;29;20044;-60
2023/09/16 03:24:56;;;;;;;1.30;1.10;;;;;;;-144.57;100.00;62443.72;4842853;29;20049;-60
2023/09/16 03:27:22;;;;;;;1.08;0.70;;;;;;;-144.57;100.00;62443.72;4857413;29;20045;-60
2023/09/16 03:29:48;;;;;;;1.95;0.90;;;;;;;-144.57;100.00;62443.72;4858189;29;20423;-61
2023/09/16 03:32:13;;;;;;;1.45;0.93;;;;;;;-144.57;100.00;62443.72;4858090;29;20117;-60
2023/09/16 03:34:39;;;;;;;0.70;0.70;;;;;;;-144.57;100.00;62443.72;4842674;29;20050;-60
2023/09/16 03:37:05;;;;;;;0.75;0.75;;;;;;;-144.57;100.00;62443.72;4857768;29;20041;-61
2023/09/16 03:39:31;;;;;;;0.75;0.75;;;;;;;-144.57;100.00;62443.72;4859492;29;20080;-61
2023/09/16 03:41:58;;;;;;;0.63;0.63;;;;;;;-144.57;100.00;62443.72;4841734;29;20109;-60
2023/09/16 03:44:24;;;;;;;0.70;0.70;;;;;;;-144.57;100.00;62443.72;4857496;29;20052;-61
2023/09/16 03:46:50;;;;;;;0.60;0.60;;;;;;;-144.57;100.00;62443.72;4857957;29;20061;-61
2023/09/16 03:49:16;;;;;;;1.08;0.98;;;;;;;-144.57;100.00;62443.72;4842603;29;20459;-60
2023/09/16 03:51:44;;;;;;;0.70;0.70;;;;;;;-144.57;100.00;62443.72;4842712;29;20087;-61
2023/09/16 03:54:13;;;;;;;0.80;0.80;;;;;;;-144.57;100.00;62443.72;4857789;29;20464;-61
2023/09/16 03:56:40;;;;;;;0.68;0.68;;;;;;;-144.57;100.00;62443.72;4857646;29;20077;-59
2023/09/16 03:59:09;;;;;;;0.73;0.73;;;;;;;-144.57;100.00;62443.72;4842755;29;20148;-61
2023/09/16 04:01:35;;;;;;;0.70;0.70;;;;;;;-144.57;100.00;62443.72;4857865;29;20313;-60
2023/09/16 04:04:01;;;;;;;1.10;0.90;;;;;;;-144.57;100.00;62443.72;4857890;29;20046;-60
2023/09/16 04:06:27;;;;;;;1.27;1.00;;;;;;;-144.57;100.00;62443.72;4857873;29;20057;-63
2023/09/16 04:08:53;;;;;;;0.90;0.90;;;;;;;-144.57;100.00;62443.72;4859410;29;20045;-59
2023/09/16 04:11:19;;;;;;;1.00;1.00;;;;;;;-144.57;100.00;62443.72;4857739;29;20077;-61
2023/09/16 04:13:45;;;;;;;1.20;1.10;;;;;;;-144.57;100.00;62443.72;4857707;29;20050;-60
2023/09/16 04:16:11;;;;;;;1.15;1.05;;;;;;;-144.57;100.00;62443.72;4858761;29;20105;-62
2023/09/16 04:18:37;;;;;;;2.00;1.20;;;;;;;-144.57;100.00;62443.72;4859765;29;20049;-60
2023/09/16 04:21:03;;;;;;;4.55;1.75;;;;;;;-144.57;100.00;62443.72;4860296;29;20241;-61
2023/09/16 04:23:29;;;;;;;0.98;0.90;;;;;;;-144.57;100.00;62443.72;4859585;29;20101;-61
2023/09/16 04:26:00;;;;;;;0.95;0.95;;;;;;;-144.57;100.00;62443.72;4859615;29;20148;-60
2023/09/16 04:28:28;;;;;;;0.85;0.70;;;;;;;-144.57;100.00;62443.72;4843560;29;20253;-60
2023/09/16 04:30:54;;;;;;;0.82;0.82;;;;;;;-144.57;100.00;62443.72;4858642;29;20053;-60
2023/09/16 04:33:21;;;;;;;0.73;0.73;;;;;;;-144.57;100.00;62443.72;4842933;29;20050;-61
2023/09/16 04:35:50;;;;;;;0.70;0.70;;;;;;;-144.57;100.00;62443.72;4858254;29;20061;-62
2023/09/16 04:38:16;;;;;;;0.63;0.63;;;;;;;-144.57;100.00;62443.72;4842792;29;20053;-61
2023/09/16 04:40:44;;;;;;;0.60;0.60;;;;;;;-144.57;100.00;62443.72;4842979;29;20053;-60
2023/09/16 04:43:12;;;;;;;0.80;0.80;;;;;;;-144.57;100.00;62443.72;4857441;29;20084;-61
2023/09/16 04:45:38;;;;;;;1.45;1.00;;;;;;;-144.57;100.00;62443.72;4856344;29;20049;-61
2023/09/16 04:48:05;;;;;;;0.70;0.70;;;;;;;-144.57;100.00;62443.72;4858797;29;20050;-62
2023/09/16 04:50:31;;;;;;;0.70;0.70;;;;;;;-144.57;100.00;62443.72;4842196;29;20493;-59
2023/09/16 04:53:00;;;;;;;1.48;0.90;;;;;;;-144.57;100.00;62443.72;4857705;29;20092;-61
2023/09/16 04:55:26;;;;;;;0.60;0.60;;;;;;;-144.57;100.00;62443.72;4860837;29;20125;-61
2023/09/16 04:57:52;;;;;;;0.60;0.60;;;;;;;-144.57;100.00;62443.72;4861049;29;20389;-61
2023/09/16 05:00:18;;;;;;;0.77;0.77;;;;;;;-144.57;100.00;62443.72;4860799;29;20126;-61
2023/09/16 05:02:48;;;;;;;0.77;0.70;;;;;;;-144.57;100.00;62443.72;4860856;29;20488;-61
2023/09/16 05:05:14;;;;;;;0.80;0.80;;;;;;;-144.57;100.00;62443.72;4860704;29;20113;-62
2023/09/16 05:07:41;;;;;;;0.68;0.68;;;;;;;-144.57;100.00;62443.72;4860752;29;20081;-61
2023/09/16 05:10:07;;;;;;;0.70;0.70;;;;;;;-144.57;100.00;62443.72;4861655;29;20167;-61
2023/09/16 05:12:35;;;;;;;0.70;0.70;;;;;;;-144.57;100.00;62443.72;4860963;29;20049;-61
2023/09/16 05:15:02;;;;;;;0.73;0.73;;;;;;;-144.57;100.00;62443.72;4860264;29;20080;-61
2023/09/16 05:17:29;;;;;;;0.88;0.82;;;;;;;-144.57;100.00;62443.72;4845605;29;20045;-60
2023/09/16 05:19:55;;;;;;;0.60;0.60;;;;;;;-144.57;100.00;62443.72;4860300;29;20078;-61
2023/09/16 05:22:20;;;;;;;0.80;0.80;;;;;;;-144.57;100.00;62443.72;4845018;29;20209;-60
2023/09/16 05:24:46;;;;;;;0.93;0.93;;;;;;;-144.57;100.00;62443.72;4861571;29;20415;-62
2023/09/16 05:27:13;;;;;;;0.80;0.80;;;;;;;-144.57;100.00;62443.72;4860331;29;20428;-61
2023/09/16 05:29:38;;;;;;;0.70;0.70;;;;;;;-144.57;100.00;62443.72;4856594;29;20042;-61
2023/09/16 05:32:04;;;;;;;0.82;0.80;;;;;;;-144.57;100.00;62443.72;4842090;29;20046;-61
2023/09/16 05:34:32;;;;;;;2.08;0.82;;;;;;;-144.57;100.00;62443.72;4826997;29;20041;-62
2023/09/16 05:36:58;;;;;;;0.63;0.63;;;;;;;-144.57;100.00;62443.72;4840779;29;20137;-62
2023/09/16 05:39:24;;;;;;;1.58;1.02;;;;;;;-144.57;100.00;62443.72;4841631;29;20618;-62
2023/09/16 05:41:49;;;;;;;1.50;0.70;;;;;;;-144.57;100.00;62443.72;4841528;29;20120;-61
2023/09/16 05:44:20;;;;;;;0.80;0.80;;;;;;;-144.57;100.00;62443.72;4841745;29;20473;-59
2023/09/16 05:46:46;;;;;;;0.80;0.80;;;;;;;-144.57;100.00;62443.72;4825977;29;20058;-61
2023/09/16 05:49:11;;;;;;;0.70;0.70;;;;;;;-144.57;100.00;62443.72;4842666;29;20102;-61
2023/09/16 05:51:39;;;;;;;0.60;0.60;;;;;;;-144.57;100.00;62443.72;4826344;29;20045;-62
2023/09/16 05:54:05;;;;;;;1.10;0.65;;;;;;;-144.57;100.00;62443.72;4841243;29;20050;-62
2023/09/16 05:56:32;;;;;;;0.60;0.60;;;;;;;-144.57;100.00;62443.72;4841221;29;20050;-61
2023/09/16 05:58:59;;;;;;;0.60;0.60;;;;;;;-144.57;100.00;62443.72;4826116;29;20045;-61
2023/09/16 06:01:24;;;;;;;0.65;0.50;;;;;;;-144.57;100.00;62443.72;4841162;29;20137;-61
2023/09/16 06:03:51;;;;;;;1.20;0.50;;;;;;;-144.57;100.00;62443.72;4826053;29;20186;-61
2023/09/16 06:06:17;;;;;;;0.75;0.60;;;;;;;-144.57;100.00;62443.72;4810410;29;20050;-61
2023/09/16 06:08:42;;;;;;;0.60;0.60;;;;;;;-144.57;100.00;62443.72;4842667;29;20057;-61
2023/09/16 06:11:08;;;;;;;0.65;0.65;;;;;;;-144.57;100.00;62443.72;4840212;29;20081;-62
2023/09/16 06:13:33;;;;;;;0.50;0.50;;;;;;;-144.57;100.00;62443.72;4840838;29;20186;-60
2023/09/16 06:15:59;;;;;;;0.60;0.60;;;;;;;-144.57;100.00;62443.72;4841769;29;20134;-63
2023/09/16 06:18:27;;;;;;;1.02;0.70;;;;;;;-144.57;100.00;62443.72;4840944;29;20524;-60
2023/09/16 06:20:52;;;;;;;0.80;0.80;;;;;;;-144.57;100.00;62443.72;4854827;29;20061;-63
2023/09/16 06:23:18;;;;;;;0.88;0.88;;;;;;;-144.57;100.00;62443.72;4844137;29;20132;-61
2023/09/16 06:25:46;;;;;;;0.70;0.70;;;;;;;-144.57;100.00;62443.72;4844265;29;20057;-61
2023/09/16 06:28:12;;;;;;;1.17;0.60;;;;;;;-144.57;100.00;62443.72;4859237;29;20523;-60
2023/09/16 06:30:37;;;;;;;0.70;0.70;;;;;;;-144.57;100.00;62443.72;4859211;29;20431;-61
2023/09/16 06:33:04;;;;;;;0.73;0.73;;;;;;;-144.57;100.00;62443.72;4859279;29;20139;-61
2023/09/16 06:35:30;;;;;;;0.80;0.80;;;;;;;-144.57;100.00;62443.72;4860445;29;20084;-62
2023/09/16 06:37:55;;;;;;;1.70;0.80;;;;;;;-144.57;100.00;62443.72;4859103;29;20396;-62
2023/09/16 06:40:21;;;;;;;1.13;1.05;;;;;;;-144.57;100.00;62443.72;4860328;29;20042;-62
2023/09/16 06:42:47;;;;;;;0.70;0.70;;;;;;;-144.57;100.00;62443.72;4859097;29;20619;-61
2023/09/16 06:45:13;;;;;;;0.82;0.70;;;;;;;-144.57;100.00;62443.72;4860285;29;20136;-63
2023/09/16 06:47:39;;;;;;;0.73;0.73;;;;;;;-144.57;100.00;62443.72;4858848;29;20057;-61
2023/09/16 06:50:06;;;;;;;1.42;0.80;;;;;;;-144.57;100.00;62443.72;4858981;29;20441;-62
2023/09/16 06:52:32;;;;;;;1.65;0.80;;;;;;;-144.57;100.00;62443.72;4860144;29;20464;-58
2023/09/16 06:54:57;;;;;;;1.02;0.80;;;;;;;-144.57;100.00;62443.72;4843247;29;20081;-62
2023/09/16 06:57:23;;;;;;;0.60;0.60;;;;;;;-144.57;100.00;62443.72;4858558;29;20520;-62
2023/09/16 06:59:49;;;;;;;0.70;0.70;;;;;;;-144.57;100.00;62443.72;4841384;29;20082;-63
2023/09/16 07:02:16;;;;;;;0.70;0.70;;;;;;;-144.57;100.00;62443.72;4859509;29;20084;-63
2023/09/16 07:04:42;;;;;;;0.63;0.63;;;;;;;-144.57;100.00;62443.72;4859533;29;20094;-60
2023/09/16 07:07:12;;;;;;;0.95;0.90;;;;;;;-144.57;100.00;62443.72;4859480;29;20499;-60
2023/09/16 07:09:38;;;;;;;0.80;0.80;;;;;;;-144.57;100.00;62443.72;4858455;29;20046;-61
2023/09/16 07:12:05;;;;;;;0.82;0.80;;;;;;;-144.57;100.00;62443.72;4859105;29;20588;-61
2023/09/16 07:14:30;;;;;;;0.77;0.77;;;;;;;-144.57;100.00;62443.72;4856692;29;20068;-63
2023/09/16 07:16:56;;;;;;;0.70;0.70;;;;;;;-144.57;100.00;62443.72;4840078;29;20647;-59
2023/09/16 07:19:22;;;;;;;0.75;0.75;;;;;;;-144.57;100.00;62443.72;4858685;29;20046;-64
2023/09/16 07:21:47;;;;;;;0.65;0.65;;;;;;;-144.57;100.00;62443.72;4857814;29;20105;-61
2023/09/16 07:24:13;;;;;;;0.95;0.80;;;;;;;-144.57;100.00;62443.72;4852522;29;20057;-62
2023/09/16 07:26:42;;;;;;;0.93;0.93;;;;;;;-144.57;100.00;62443.72;4856639;29;20042;-63
2023/09/16 07:29:08;;;;;;;1.33;0.90;;;;;;;-144.57;100.00;62443.72;4858036;29;20084;-61
2023/09/16 07:31:33;;;;;;;0.80;0.80;;;;;;;-144.57;100.00;62443.72;4858988;29;20045;-62
2023/09/16 07:33:59;;;;;;;0.70;0.70;;;;;;;-144.57;100.00;62443.72;4841667;29;20064;-61
2023/09/16 07:36:25;;;;;;;0.93;0.93;;;;;;;-144.57;100.00;62443.72;4858084;29;20049;-63
2023/09/16 07:38:50;;;;;;;1.25;1.02;;;;;;;-144.57;100.00;62443.72;4856819;29;20053;-60
2023/09/16 07:41:18;;;;;;;1.25;1.05;;;;;;;-144.57;100.00;62443.72;4857392;29;20576;-59
2023/09/16 07:43:45;;;;;;;1.00;1.00;;;;;;;-144.57;100.00;62443.72;4809829;29;20038;-60
2023/09/16 07:46:11;;;;;;;0.82;0.82;;;;;;;-144.57;100.00;62443.72;4856314;29;20056;-61
2023/09/16 07:48:36;;;;;;;1.27;0.88;;;;;;;-144.57;100.00;62443.72;4858007;29;20221;-59
2023/09/16 07:51:02;;;;;;;0.90;0.90;;;;;;;-144.57;100.00;62443.72;4857829;29;20424;-61
2023/09/16 07:53:28;;;;;;;1.60;1.10;;;;;;;-144.57;100.00;62443.72;4841668;29;20522;-60
2023/09/16 07:55:53;;;;;;;0.90;0.90;;;;;;;-144.57;100.00;62443.72;4857656;29;20420;-62
2023/09/16 07:58:19;;;;;;;1.65;1.00;;;;;;;-144.57;100.00;62443.72;4859361;29;20053;-60
2023/09/16 08:00:44;;;;;;;1.02;1.02;;;;;;;-144.57;100.00;62443.72;4858912;29;20071;-60
2023/09/16 08:03:10;;;;;;;0.90;0.90;;;;;;;-144.57;100.00;62443.72;4858977;29;20049;-58
2023/09/16 08:05:36;;;;;;;2.85;1.15;;;;;;;-144.57;100.00;62443.72;4857842;29;20092;-61
2023/09/16 08:08:02;;;;;;;2.05;1.58;;;;;;;-144.57;100.00;62443.72;4842289;29;20201;-59
2023/09/16 08:10:28;;;;;;;0.90;0.90;;;;;;;-144.57;100.00;62443.72;4858953;29;20432;-59
2023/09/16 08:12:53;;;;;;;3.22;1.17;;;;;;;-144.57;100.00;62443.72;4859209;29;20061;-60
2023/09/16 08:15:19;;;;;;;1.13;1.00;;;;;;;-144.57;100.00;62443.72;4857287;29;20049;-62
2023/09/16 08:17:44;;;;;;;1.30;1.20;;;;;;;-144.57;100.00;62443.72;4859237;29;20060;-61
2023/09/16 08:20:10;;;;;;;2.15;1.10;;;;;;;-144.57;100.00;62443.72;4859027;29;20767;-62
2023/09/16 08:22:36;;;;;;;1.20;1.10;;;;;;;-144.57;100.00;62443.72;4857486;29;20045;-61
2023/09/16 08:25:03;;;;;;;0.90;0.90;;;;;;;-144.57;100.00;62443.72;4859374;29;20081;-62
2023/09/16 08:27:29;;;;;;;1.08;0.90;;;;;;;-144.57;100.00;62443.72;4842280;29;20053;-61
2023/09/16 08:29:54;;;;;;;0.90;0.90;;;;;;;-144.57;100.00;62443.72;4861043;29;20473;-61
2023/09/16 08:32:28;;;;;;;0.80;0.80;;;;;;;-144.57;100.00;62443.72;4862291;29;20069;-60
2023/09/16 08:34:55;;;;;;;1.00;1.00;;;;;;;-144.57;100.00;62443.72;4862058;29;20105;-62
2023/09/16 08:37:21;;;;;;;1.10;1.10;;;;;;;-144.57;100.00;62443.72;4860833;29;20045;-59
2023/09/16 08:39:46;;;;;;;1.38;1.15;;;;;;;-144.57;100.00;62443.72;4862356;29;20056;-63
2023/09/16 08:42:36;;;;;;;1.40;1.30;;;;;;;-144.57;100.00;62443.72;4860513;29;20042;-60
2023/09/16 08:45:07;;;;;;;2.88;1.25;;;;;;;-144.57;100.00;62443.72;4861938;29;20049;-60
2023/09/16 08:47:56;;;;;;;1.50;1.30;;;;;;;-144.57;100.00;62443.72;4860352;29;20061;-60
2023/09/16 08:50:22;;;;;;;1.20;1.10;;;;;;;-144.57;100.00;62443.72;4861814;29;20181;-60
2023/09/16 08:52:53;;;;;;;1.70;1.60;;;;;;;-144.57;100.00;62443.72;4861528;29;20124;-60
2023/09/16 08:55:19;;;;;;;1.63;1.40;;;;;;;-144.57;100.00;62443.72;4860515;29;20149;-60
2023/09/16 08:57:51;;;;;;;3.72;1.40;;;;;;;-144.57;100.00;62443.72;4861949;29;20064;-60
2023/09/16 09:00:17;;;;;;;1.42;1.33;;;;;;;-144.57;100.00;62443.72;4860457;29;20041;-60
2023/09/16 09:02:43;;;;;;;1.00;1.00;;;;;;;-144.57;100.00;62443.72;4860307;29;20045;-60
2023/09/16 09:05:11;;;;;;;1.40;1.30;;;;;;;-144.57;100.00;62443.72;4861734;29;20179;-62
2023/09/16 09:07:38;;;;;;;1.20;1.00;;;;;;;-144.57;100.00;62443.72;4862192;29;20412;-59
2023/09/16 09:10:05;;;;;;;2.10;1.20;;;;;;;-144.57;100.00;62443.72;4861748;29;20172;-59
2023/09/16 09:12:33;;;;;;;3.00;1.20;;;;;;;-144.57;100.00;62443.72;4862145;29;20049;-60
2023/09/16 09:15:04;;;;;;;1.05;1.00;;;;;;;-144.57;100.00;62443.72;4860482;29;20416;-60
2023/09/16 09:17:34;;;;;;;1.27;1.17;;;;;;;-144.57;100.00;62443.72;4860646;29;20047;-59
2023/09/16 09:20:00;;;;;;;1.48;1.15;;;;;;;-144.57;100.00;62443.72;4860660;29;20400;-61
2023/09/16 09:22:26;;;;;;;1.00;1.00;;;;;;;-144.57;100.00;62443.72;4861786;29;20132;-60
2023/09/16 09:24:52;;;;;;;2.65;1.40;;;;;;;-144.57;100.00;62443.72;4861831;29;20046;-61
2023/09/16 09:27:17;;;;;;;2.58;1.00;;;;;;;-144.57;100.00;62443.72;4861188;29;20452;-60
2023/09/16 09:29:43;;;;;;;5.75;1.30;;;;;;;-144.57;100.00;62443.72;4861441;29;20428;-61
2023/09/16 09:32:09;;;;;;;1.23;1.15;;;;;;;-144.57;100.00;62443.72;4861428;29;20390;-60
2023/09/16 09:34:36;;;;;;;2.58;1.00;;;;;;;-144.57;100.00;62443.72;4860144;29;20046;-60
2023/09/16 09:37:02;;;;;;;1.00;1.00;;;;;;;-144.57;100.00;62443.72;4860285;29;20553;-61
2023/09/16 09:39:27;;;;;;;2.45;1.20;;;;;;;-144.57;100.00;62443.72;4860628;29;20049;-62
2023/09/16 09:41:53;;;;;;;3.13;1.20;;;;;;;-144.57;100.00;62443.72;4860978;29;20046;-59
2023/09/16 09:44:19;;;;;;;4.18;1.42;;;;;;;-144.57;100.00;62443.72;4860883;29;20070;-62
2023/09/16 09:46:44;;;;;;;1.83;1.20;;;;;;;-144.57;100.00;62443.72;4861153;29;20106;-61
2023/09/16 09:49:13;;;;;;;2.22;1.35;;;;;;;-144.57;100.00;62443.72;4860077;29;20053;-61
2023/09/16 09:51:39;;;;;;;1.20;1.10;;;;;;;-144.57;100.00;62443.72;4859725;29;20041;-62
2023/09/16 09:54:06;;;;;;;2.25;1.10;;;;;;;-144.57;100.00;62443.72;4860929;29;20144;-61
2023/09/16 09:56:32;;;;;;;1.38;1.13;;;;;;;-144.57;100.00;62443.72;4859828;29;20534;-59
2023/09/16 09:58:59;;;;;;;2.67;1.40;;;;;;;-144.57;100.00;62443.72;4859639;29;20140;-60
2023/09/16 10:01:31;;;;;;;1.23;1.13;;;;;;;-144.57;100.00;62443.72;4858919;29;20050;-60
2023/09/16 10:03:57;;;;;;;2.30;1.30;;;;;;;-144.57;100.00;62443.72;4861148;29;20037;-61
2023/09/16 10:06:24;;;;;;;0.90;0.90;;;;;;;-144.57;100.00;62443.72;4859889;29;20417;-62
2023/09/16 10:08:50;;;;;;;1.85;1.15;;;;;;;-144.57;100.00;62443.72;4859491;29;20045;-61
2023/09/16 10:11:20;;;;;;;1.25;1.17;;;;;;;-144.57;100.00;62443.72;4860587;29;20219;-61
2023/09/16 10:13:47;;;;;;;;;;;;;;;-144.57;100.00;62443.72;4861084;29;20054;-60
2023/09/16 10:16:13;;;;;;;1.08;1.00;;;;;;;-144.57;100.00;62443.72;4860635;29;19927;-59
2023/09/16 10:18:38;;;;;;;2.03;1.25;;;;;;;-144.57;100.00;62443.72;4860797;29;20108;-59
2023/09/16 10:21:06;;;;;;;2.92;1.17;;;;;;;-144.57;100.00;62443.72;4840897;29;20505;-61
2023/09/16 10:23:32;;;;;;;1.58;1.30;;;;;;;-144.57;100.00;62443.72;4842328;29;20569;-60
2023/09/16 10:25:57;;;;;;;1.55;1.30;;;;;;;-144.57;100.00;62443.72;4841124;29;20062;-61
2023/09/16 10:28:23;;;;;;;1.30;1.20;;;;;;;-144.57;100.00;62443.72;4841015;29;20512;-59
2023/09/16 10:30:49;;;;;;;1.30;1.20;;;;;;;-144.57;100.00;62443.72;4842047;29;20045;-60
2023/09/16 10:33:15;;;;;;;2.70;1.40;;;;;;;-144.57;100.00;62443.72;4842453;29;20056;-61
2023/09/16 10:35:42;;;;;;;1.58;1.30;;;;;;;-144.57;100.00;62443.72;4840879;29;20049;-59
2023/09/16 10:38:10;;;;;;;1.88;1.67;;;;;;;-144.57;100.00;62443.72;4841667;29;20054;-60
2023/09/16 10:40:38;;;;;;;1.52;1.33;;;;;;;-144.57;100.00;62443.72;4840658;29;20064;-60
2023/09/16 10:43:04;;;;;;;2.47;1.20;;;;;;;-144.57;100.00;62443.72;4840770;29;20298;-60
2023/09/16 10:45:31;;;;;;;1.15;1.15;;;;;;;-144.57;100.00;62443.72;4840194;29;20568;-60
2023/09/16 10:47:59;;;;;;;2.30;1.40;;;;;;;-144.57;100.00;62443.72;4855545;29;20425;-60
2023/09/16 10:50:25;;;;;;;3.15;2.00;;;;;;;-144.57;100.00;62443.72;4841901;29;20581;-59
2023/09/16 10:53:01;;;;;;;2.13;1.50;;;;;;;-144.57;100.00;62443.72;4841406;29;20519;-60
2023/09/16 10:55:38;;;;;;;2.60;1.27;;;;;;;-144.57;100.00;62443.72;4841722;29;20113;-59
2023/09/16 10:58:46;;;;;;;1.30;1.20;;;;;;;-144.57;100.00;62443.72;4841825;29;20049;-60
2023/09/16 11:01:18;;;;;;;1.30;1.20;;;;;;;-144.57;100.00;62443.72;4835789;29;20069;-59
2023/09/16 11:03:53;;;;;;;2.08;1.20;;;;;;;-144.57;100.00;62443.72;4841233;29;20046;-59
2023/09/16 11:06:19;;;;;;;1.20;1.10;;;;;;;-144.57;100.00;62443.72;4840227;29;20049;-60